createdAt,value
2023-05-19T00:08:20.027Z,975.10
2023-05-19T00:18:21.450Z,962.67
2023-05-19T00:28:22.935Z,959.22
2023-05-19T00:38:24.741Z,956.95
2023-05-19T00:48:26.249Z,950.58
2023-05-19T00:58:30.074Z,952.28
2023-05-19T01:08:36.136Z,926.10
2023-05-19T01:18:56.143Z,910.47
2023-05-19T01:29:07.535Z,915.63
2023-05-19T01:39:08.996Z,908.00
2023-05-19T01:49:10.423Z,921.20
2023-05-19T01:59:40.246Z,928.72
2023-05-19T02:10:23.814Z,925.97
2023-05-19T02:20:25.228Z,912.35
2023-05-19T02:30:26.813Z,919.40
2023-05-19T02:40:28.256Z,909.40
2023-05-19T02:50:29.852Z,906.30
2023-05-19T03:00:31.675Z,905.30
2023-05-19T03:10:33.447Z,900.17
2023-05-19T03:20:35.209Z,902.05
2023-05-19T03:30:37.273Z,887.80
2023-05-19T03:40:38.930Z,888.17
2023-05-19T03:50:40.532Z,878.78
2023-05-19T04:00:42.431Z,876.35
2023-05-19T04:10:43.988Z,874.95
2023-05-19T04:20:45.592Z,863.72
2023-05-19T04:30:50.671Z,875.58
2023-05-19T04:41:02.152Z,878.25
2023-05-19T04:51:05.022Z,889.80
2023-05-19T05:01:06.622Z,901.25
2023-05-19T05:11:08.296Z,894.15
2023-05-19T05:21:10.195Z,908.40
2023-05-19T05:31:11.768Z,941.03
2023-05-19T05:41:13.349Z,967.95
2023-05-19T05:51:14.947Z,1024.10
2023-05-19T06:01:17.619Z,1073.35
2023-05-19T06:11:19.912Z,1102.47
2023-05-19T06:21:21.740Z,1138.10
2023-05-19T06:31:23.245Z,1163.72
2023-05-19T06:41:24.855Z,1181.15
2023-05-19T06:51:26.368Z,1193.68
2023-05-19T07:01:28.440Z,1210.35
2023-05-19T07:11:29.886Z,1223.05
2023-05-19T07:21:31.397Z,1239.15
2023-05-19T07:31:32.953Z,1247.35
2023-05-19T07:41:36.463Z,1254.50
2023-05-19T07:51:38.150Z,1261.32
2023-05-19T08:01:39.560Z,1267.15
2023-05-19T08:11:41.032Z,1269.88
2023-05-19T08:21:42.484Z,1274.97
2023-05-19T08:31:44.109Z,1282.22
2023-05-19T08:41:45.838Z,1284.57
2023-05-19T08:52:09.630Z,1284.32
2023-05-19T09:02:11.450Z,1292.32
2023-05-19T09:12:13.183Z,1298.93
2023-05-19T09:22:19.275Z,1296.85
2023-05-19T09:32:27.456Z,1304.20
2023-05-19T09:42:30.076Z,1307.28
2023-05-19T09:52:31.543Z,1298.80
2023-05-19T10:02:33.158Z,1301.50
2023-05-19T10:12:34.778Z,1291.43
2023-05-19T10:22:36.982Z,1262.80
2023-05-19T10:32:39.284Z,1253.55
2023-05-19T10:42:44.698Z,1242.28
2023-05-19T10:52:49.000Z,1176.40
2023-05-19T11:02:55.994Z,1193.30
2023-05-19T11:12:58.291Z,1173.65
2023-05-19T11:23:09.291Z,1164.68
2023-05-19T11:33:10.923Z,1159.47
2023-05-19T11:43:12.556Z,1119.03
2023-05-19T11:53:14.035Z,1035.43
2023-05-19T12:03:17.510Z,1057.30
2023-05-19T12:13:19.268Z,1044.88
2023-05-19T12:23:20.847Z,1045.68
2023-05-19T12:33:22.851Z,1036.15
2023-05-19T12:43:24.389Z,1048.15
2023-05-19T12:53:26.358Z,1021.50
2023-05-19T13:03:27.943Z,1063.28
2023-05-19T13:13:29.465Z,1083.95
2023-05-19T13:23:30.891Z,1066.78
2023-05-19T13:33:32.370Z,1041.00
2023-05-19T13:43:33.825Z,1052.40
2023-05-19T13:53:35.394Z,1072.35
2023-05-19T14:03:37.129Z,1066.80
2023-05-19T14:13:42.563Z,1022.60
2023-05-19T14:23:44.885Z,1043.15
2023-05-19T14:33:46.540Z,1039.85
2023-05-19T14:43:48.887Z,1056.07
2023-05-19T14:53:50.682Z,1035.90
2023-05-19T15:03:52.428Z,1036.40
2023-05-19T15:13:54.081Z,1046.60
2023-05-19T15:23:55.603Z,1047.32
2023-05-19T15:33:57.128Z,1055.57
2023-05-19T15:44:02.421Z,1055.05
2023-05-19T15:54:03.846Z,1091.18
2023-05-19T16:04:05.380Z,1063.00
2023-05-19T16:14:06.986Z,1039.53
2023-05-19T16:24:08.434Z,1057.63
2023-05-19T16:34:09.994Z,1069.35
2023-05-19T16:44:14.198Z,1075.63
2023-05-19T16:54:15.788Z,1094.32
2023-05-19T17:04:17.226Z,1080.20
2023-05-19T17:14:18.707Z,1065.72
2023-05-19T17:24:20.254Z,1094.80
2023-05-19T17:34:21.864Z,1086.28
2023-05-19T17:44:23.317Z,1082.30
2023-05-19T17:54:26.083Z,1091.43
2023-05-19T18:04:27.730Z,1114.20
2023-05-19T18:14:29.315Z,1107.57
2023-05-19T18:24:30.773Z,1103.15
2023-05-19T18:34:32.353Z,1112.28
2023-05-19T18:44:33.849Z,1122.60
2023-05-19T18:54:35.394Z,1143.63
2023-05-19T19:04:36.912Z,1128.97
2023-05-19T19:14:38.929Z,1115.28
2023-05-19T19:24:42.914Z,1118.18
2023-05-19T19:34:44.400Z,1127.50
2023-05-19T19:44:45.929Z,1125.97
2023-05-19T19:54:48.032Z,1157.10
2023-05-19T20:04:49.476Z,1001.90
2023-05-19T20:14:53.467Z,924.00
2023-05-19T20:24:54.898Z,868.78
2023-05-19T20:34:56.496Z,889.50
2023-05-19T20:44:58.077Z,907.88
2023-05-19T20:54:59.531Z,927.80
2023-05-19T21:05:01.093Z,904.92
2023-05-19T21:15:03.518Z,887.92
2023-05-19T21:25:05.329Z,940.72
2023-05-19T21:35:07.177Z,914.88
2023-05-19T21:45:09.193Z,928.17
2023-05-19T21:55:10.664Z,950.22
2023-05-19T22:05:12.304Z,966.80
2023-05-19T22:15:14.359Z,1002.58
2023-05-19T22:25:16.048Z,1023.90
2023-05-19T22:35:17.772Z,1036.75
2023-05-19T22:45:19.251Z,1057.10
2023-05-19T22:55:21.047Z,1081.55
2023-05-19T23:05:22.480Z,1130.90
2023-05-19T23:15:24.040Z,1116.93
2023-05-19T23:25:25.478Z,1146.13
2023-05-19T23:35:26.958Z,1140.28
2023-05-19T23:45:28.387Z,1106.80
2023-05-19T23:55:29.951Z,1130.93
